Time;durP1;ratioP1;P1;durP2;ratioP2;P2;SDS_P1;SDS_P2;PMS_P1;PMS_P2;Temp;Humidity;BMP_temperature;BMP_pressure;BME280_temperature;BME280_humidity;BME280_pressure;Samples;Min_cycle;Max_cycle;Signal;HPM_P1;HPM_P2
2022/10/04 00:02:14;;;;;;;12.32;5.25;;;7.70;99.90;;;;;;5072126;28;20056;-53
2022/10/04 00:04:46;;;;;;;5.95;4.18;;;7.70;99.90;;;;;;5072083;28;20050;-54
2022/10/04 00:07:12;;;;;;;14.02;4.63;;;7.70;99.90;;;;;;5072396;28;20025;-55
2022/10/04 00:09:48;;;;;;;7.57;4.80;;;7.80;99.90;;;;;;5072169;28;20114;-56
2022/10/04 00:12:25;;;;;;;6.50;4.85;;;7.70;99.90;;;;;;5072060;28;20037;-52
2022/10/04 00:14:54;;;;;;;9.15;5.07;;;7.70;99.90;;;;;;5070564;28;20487;-54
2022/10/04 00:17:25;;;;;;;7.85;5.25;;;7.70;99.90;;;;;;5072051;28;20036;-53
2022/10/04 00:19:52;;;;;;;7.40;4.15;;;7.80;99.90;;;;;;5071880;28;20103;-52
2022/10/04 00:22:23;;;;;;;9.15;5.22;;;7.70;99.90;;;;;;5072010;28;20013;-53
2022/10/04 00:25:08;;;;;;;5.50;4.53;;;7.70;99.90;;;;;;5071852;28;20024;-54
2022/10/04 00:27:35;;;;;;;10.27;5.20;;;7.80;99.90;;;;;;5071998;28;20016;-53
2022/10/04 00:30:01;;;;;;;14.15;4.70;;;7.70;99.90;;;;;;5071544;28;20028;-52
2022/10/04 00:33:00;;;;;;;7.35;5.18;;;7.70;99.90;;;;;;5071913;28;20013;-52
2022/10/04 00:35:28;;;;;;;8.13;4.18;;;7.70;99.90;;;;;;5071944;28;20027;-53
2022/10/04 00:38:15;;;;;;;6.93;4.93;;;7.70;99.90;;;;;;5071370;28;20024;-53
2022/10/04 00:40:59;;;;;;;6.75;4.55;;;7.70;99.90;;;;;;5071843;28;20042;-54
2022/10/04 00:43:30;;;;;;;6.45;4.60;;;7.60;99.90;;;;;;5071815;28;20020;-53
2022/10/04 00:46:04;;;;;;;9.35;4.25;;;7.60;99.90;;;;;;5071595;28;20052;-52
2022/10/04 00:48:48;;;;;;;6.57;4.30;;;7.60;99.90;;;;;;5071465;28;20016;-56
2022/10/04 00:51:17;;;;;;;7.43;4.28;;;7.50;99.90;;;;;;5071495;28;20025;-51
2022/10/04 00:54:05;;;;;;;9.82;4.85;;;7.50;99.90;;;;;;5070289;28;20082;-55
2022/10/04 00:56:49;;;;;;;13.18;4.60;;;7.40;99.90;;;;;;5071727;28;20024;-54
2022/10/04 00:59:45;;;;;;;5.97;4.28;;;7.30;99.90;;;;;;5071744;28;20128;-55
2022/10/04 01:02:20;;;;;;;6.97;4.00;;;7.10;99.90;;;;;;5071284;28;20032;-54
2022/10/04 01:05:09;;;;;;;11.00;4.55;;;7.10;99.90;;;;;;5071587;28;20430;-53
2022/10/04 01:07:48;;;;;;;9.73;4.38;;;7.00;99.90;;;;;;5071516;28;20027;-53
2022/10/04 01:10:48;;;;;;;4.78;3.80;;;6.80;99.90;;;;;;5071350;28;20442;-54
2022/10/04 01:13:19;;;;;;;10.75;5.18;;;6.70;99.90;;;;;;5071342;28;20025;-53
2022/10/04 01:16:17;;;;;;;14.07;4.95;;;6.70;99.90;;;;;;5071428;28;20123;-55
2022/10/04 01:18:43;;;;;;;8.40;4.70;;;6.60;99.90;;;;;;5071202;28;20487;-55
2022/10/04 01:21:17;;;;;;;12.43;4.60;;;6.50;99.90;;;;;;5071066;28;20119;-52
2022/10/04 01:23:52;;;;;;;6.88;4.43;;;6.50;99.90;;;;;;5069766;28;20545;-55
2022/10/04 01:26:30;;;;;;;10.27;4.93;;;6.50;99.90;;;;;;5071088;28;20078;-51
2022/10/04 01:28:59;;;;;;;11.02;4.47;;;6.50;99.90;;;;;;5071301;28;20024;-52
2022/10/04 01:31:26;;;;;;;5.47;4.53;;;6.50;99.90;;;;;;5071371;28;20017;-56
2022/10/04 01:34:05;;;;;;;7.03;4.13;;;6.40;99.90;;;;;;5070940;28;20103;-53
2022/10/04 01:36:33;;;;;;;8.18;4.25;;;6.30;99.90;;;;;;5071182;28;20451;-53
2022/10/04 01:38:59;;;;;;;7.25;4.95;;;6.30;99.90;;;;;;5070998;28;20021;-54
2022/10/04 01:41:35;;;;;;;7.65;3.67;;;6.40;99.90;;;;;;5071267;28;20036;-52
2022/10/04 01:44:04;;;;;;;4.60;3.95;;;6.30;99.90;;;;;;5071005;28;20398;-51
2022/10/04 01:46:35;;;;;;;8.00;4.45;;;6.20;99.90;;;;;;5071059;28;20086;-51
2022/10/04 01:49:06;;;;;;;17.63;4.72;;;6.20;99.90;;;;;;5070855;28;20048;-53
2022/10/04 01:51:43;;;;;;;7.05;4.80;;;6.10;99.90;;;;;;5069825;28;20017;-53
2022/10/04 01:54:16;;;;;;;5.93;4.40;;;6.10;99.90;;;;;;5070834;28;20020;-54
2022/10/04 01:57:22;;;;;;;10.45;4.10;;;6.10;99.90;;;;;;5070984;28;20017;-51
2022/10/04 02:03:13;;;;;;;5.38;4.22;;;5.90;99.90;;;;;;5068289;28;20109;-54
2022/10/04 02:05:43;;;;;;;4.78;4.35;;;5.80;99.90;;;;;;5070403;28;20060;-52
2022/10/04 02:08:11;;;;;;;6.07;4.25;;;5.70;99.90;;;;;;5069578;28;20430;-51
2022/10/04 02:10:38;;;;;;;5.65;4.10;;;5.60;99.90;;;;;;5070962;28;20123;-55
2022/10/04 02:13:17;;;;;;;7.18;4.32;;;5.60;99.90;;;;;;5073245;28;20024;-51
2022/10/04 02:15:45;;;;;;;8.70;4.05;;;5.50;99.90;;;;;;5074480;28;20571;-51
2022/10/04 02:18:14;;;;;;;9.25;4.30;;;5.50;99.90;;;;;;5072842;28;20469;-55
2022/10/04 02:20:41;;;;;;;6.63;4.70;;;5.50;99.90;;;;;;5074393;28;20082;-51
2022/10/04 02:23:09;;;;;;;12.80;4.35;;;5.40;99.90;;;;;;5074171;28;20100;-53
2022/10/04 02:25:36;;;;;;;4.43;4.03;;;5.40;99.90;;;;;;5074170;28;20020;-53
2022/10/04 02:28:03;;;;;;;5.07;4.18;;;5.40;99.90;;;;;;5072774;28;20051;-53
2022/10/04 02:30:36;;;;;;;8.45;4.43;;;5.30;99.90;;;;;;5074155;28;20032;-52
2022/10/04 02:33:02;;;;;;;6.25;3.63;;;5.30;99.90;;;;;;5073980;28;20387;-52
2022/10/04 02:35:34;;;;;;;9.55;4.15;;;5.20;99.90;;;;;;5074102;28;20029;-52
2022/10/04 02:38:12;;;;;;;12.25;6.45;;;5.20;99.90;;;;;;5073814;28;20049;-50
2022/10/04 02:41:01;;;;;;;4.50;4.10;;;5.20;99.90;;;;;;5073902;28;20337;-52
2022/10/04 02:43:33;;;;;;;7.53;4.65;;;5.20;99.90;;;;;;5062288;28;20040;-52
2022/10/04 02:46:06;;;;;;;8.88;4.45;;;5.20;99.90;;;;;;5073807;28;20485;-52
2022/10/04 02:48:46;;;;;;;5.60;4.25;;;5.10;99.90;;;;;;5073826;28;20024;-51
2022/10/04 02:51:18;;;;;;;5.63;4.40;;;5.10;99.90;;;;;;5073754;28;20371;-53
2022/10/04 02:54:13;;;;;;;6.78;3.50;;;5.10;99.90;;;;;;5073679;28;20028;-53
2022/10/04 02:56:39;;;;;;;3.92;3.63;;;5.00;99.90;;;;;;5073620;28;20059;-56
2022/10/04 02:59:06;;;;;;;10.60;4.07;;;5.00;99.90;;;;;;5073584;28;20027;-53
2022/10/04 03:02:01;;;;;;;8.43;4.55;;;5.00;99.90;;;;;;5073597;28;20414;-52
2022/10/04 03:04:41;;;;;;;11.20;4.95;;;4.90;99.90;;;;;;5073023;28;20036;-54
2022/10/04 03:07:08;;;;;;;9.27;4.65;;;4.90;99.90;;;;;;5073409;28;20413;-54
2022/10/04 03:09:36;;;;;;;6.32;4.18;;;4.90;99.90;;;;;;5073235;28;20127;-52
2022/10/04 03:12:03;;;;;;;5.72;4.70;;;4.80;99.90;;;;;;5073223;28;20024;-51
2022/10/04 03:14:31;;;;;;;9.88;4.75;;;4.80;99.90;;;;;;5072007;28;20074;-51
2022/10/04 03:16:59;;;;;;;5.55;5.07;;;4.80;99.90;;;;;;5071643;28;20407;-52
2022/10/04 03:19:28;;;;;;;5.78;4.13;;;4.70;99.90;;;;;;5071886;28;20017;-54
2022/10/04 03:21:57;;;;;;;6.72;4.18;;;4.70;99.90;;;;;;5072995;28;20060;-54
2022/10/04 03:24:27;;;;;;;4.90;4.13;;;4.70;99.90;;;;;;5072137;28;20021;-51
2022/10/04 03:26:55;;;;;;;8.75;4.07;;;4.70;99.90;;;;;;5071920;28;20127;-51
2022/10/04 03:29:25;;;;;;;5.93;4.38;;;4.70;99.90;;;;;;5071022;28;20047;-52
2022/10/04 03:31:56;;;;;;;6.30;4.47;;;4.70;99.90;;;;;;5072170;28;20021;-52
2022/10/04 03:34:33;;;;;;;13.73;4.20;;;4.70;99.90;;;;;;5072499;28;20077;-55
2022/10/04 03:36:59;;;;;;;7.60;4.13;;;4.70;99.90;;;;;;5071694;28;20031;-54
2022/10/04 03:39:28;;;;;;;11.68;4.35;;;4.60;99.90;;;;;;5072031;28;20024;-54
2022/10/04 03:41:56;;;;;;;4.30;3.90;;;4.60;99.90;;;;;;5072400;28;20430;-53
2022/10/04 03:44:23;;;;;;;5.13;3.83;;;4.50;99.90;;;;;;5072708;28;20021;-55
2022/10/04 03:46:48;;;;;;;8.23;4.35;;;4.50;99.90;;;;;;5071262;28;20031;-53
2022/10/04 03:49:32;;;;;;;6.47;4.45;;;4.50;99.90;;;;;;5071207;28;20024;-53
2022/10/04 03:51:59;;;;;;;18.13;4.10;;;4.50;99.90;;;;;;5072224;28;20025;-55
2022/10/04 03:54:26;;;;;;;11.27;5.00;;;4.50;99.90;;;;;;5072656;28;20024;-54
2022/10/04 03:56:55;;;;;;;8.32;5.07;;;4.50;99.90;;;;;;5072209;28;20107;-54
2022/10/04 03:59:25;;;;;;;14.85;6.03;;;4.40;99.90;;;;;;5071112;28;20032;-53
2022/10/04 04:02:14;;;;;;;11.25;4.75;;;4.40;99.90;;;;;;5072278;28;20039;-54
2022/10/04 04:05:04;;;;;;;5.93;4.72;;;4.40;99.90;;;;;;5072319;28;20036;-55
2022/10/04 04:07:49;;;;;;;4.85;3.78;;;4.30;99.90;;;;;;5071066;28;20059;-51
2022/10/04 04:10:33;;;;;;;15.45;5.40;;;4.30;99.90;;;;;;5072159;28;20476;-54
2022/10/04 04:13:23;;;;;;;9.07;4.72;;;4.30;99.90;;;;;;5072054;28;20020;-53
2022/10/04 04:15:50;;;;;;;4.78;4.22;;;4.30;99.90;;;;;;5071935;28;20031;-53
2022/10/04 04:18:29;;;;;;;4.93;3.88;;;4.30;99.90;;;;;;5072037;28;20029;-53
2022/10/04 04:20:58;;;;;;;5.60;4.00;;;4.30;99.90;;;;;;5070435;28;20371;-55
2022/10/04 04:23:31;;;;;;;4.95;4.15;;;4.20;99.90;;;;;;5070337;28;20635;-51
2022/10/04 04:26:00;;;;;;;;;;;4.10;99.90;;;;;;5072096;28;20589;-52
2022/10/04 04:28:31;;;;;;;4.35;3.95;;;4.20;99.90;;;;;;5071998;28;19908;-55
2022/10/04 04:31:08;;;;;;;8.32;3.78;;;4.20;99.90;;;;;;5070210;28;20020;-54
2022/10/04 04:33:45;;;;;;;7.15;4.05;;;4.20;99.90;;;;;;5071885;28;20027;-51
2022/10/04 04:36:13;;;;;;;8.25;4.60;;;4.20;99.90;;;;;;5071292;28;20032;-53
2022/10/04 04:39:33;;;;;;;4.70;4.22;;;4.10;99.90;;;;;;5071788;28;20028;-53
2022/10/04 04:41:27;;;;;;;5.90;4.18;;;4.10;99.90;;;;;;5071781;28;20028;-55
2022/10/04 04:43:53;;;;;;;6.00;4.47;;;4.10;99.90;;;;;;5071274;28;20046;-52
2022/10/04 04:46:20;;;;;;;8.55;4.28;;;4.10;99.90;;;;;;5071658;28;20108;-52
2022/10/04 04:48:48;;;;;;;7.78;4.60;;;4.10;99.90;;;;;;5071671;28;20021;-54
2022/10/04 04:51:20;;;;;;;6.22;4.45;;;4.10;99.90;;;;;;5071462;28;20016;-52
2022/10/04 04:53:47;;;;;;;4.97;3.42;;;4.00;99.90;;;;;;5071249;28;20024;-54
2022/10/04 04:56:18;;;;;;;6.60;4.45;;;4.10;99.90;;;;;;5071631;28;20029;-55
2022/10/04 04:58:47;;;;;;;9.20;3.58;;;4.00;99.90;;;;;;5071485;28;20074;-51
2022/10/04 05:01:42;;;;;;;3.85;3.55;;;4.00;99.90;;;;;;5071529;28;20025;-51
2022/10/04 05:04:08;;;;;;;8.93;3.42;;;4.10;99.90;;;;;;5071327;28;20037;-52
2022/10/04 05:06:36;;;;;;;3.78;3.42;;;4.10;99.90;;;;;;5071589;28;20058;-52
2022/10/04 05:09:04;;;;;;;3.88;3.58;;;4.10;99.90;;;;;;5069730;28;20391;-52
2022/10/04 05:11:36;;;;;;;13.45;3.90;;;4.10;99.90;;;;;;5071317;28;20024;-51
2022/10/04 05:14:09;;;;;;;12.60;4.22;;;4.20;99.90;;;;;;5071103;28;20415;-51
2022/10/04 05:16:53;;;;;;;6.88;4.00;;;4.20;99.90;;;;;;5071558;28;20092;-52
2022/10/04 05:19:32;;;;;;;4.00;3.60;;;4.20;99.90;;;;;;5071501;28;20535;-53
2022/10/04 05:22:01;;;;;;;3.85;3.55;;;4.30;99.90;;;;;;5071085;28;20028;-54
2022/10/04 05:24:33;;;;;;;5.43;4.47;;;4.40;99.90;;;;;;5071185;28;20028;-52
2022/10/04 05:27:08;;;;;;;7.95;4.00;;;4.40;99.90;;;;;;5071139;28;20488;-52
2022/10/04 05:29:37;;;;;;;4.07;3.67;;;4.50;99.90;;;;;;5071251;28;20111;-51
2022/10/04 05:32:42;;;;;;;8.32;3.78;;;4.60;99.90;;;;;;5070969;28;20060;-51
2022/10/04 05:35:16;;;;;;;6.38;3.58;;;4.70;99.90;;;;;;5071174;28;20033;-55
2022/10/04 05:37:57;;;;;;;5.30;3.88;;;4.80;99.90;;;;;;5069895;28;20032;-51
2022/10/04 05:40:40;;;;;;;4.20;3.80;;;4.80;99.90;;;;;;5071105;28;20024;-52
2022/10/04 05:43:36;;;;;;;7.25;3.78;;;4.90;99.90;;;;;;5070654;28;20052;-55
2022/10/04 05:46:27;;;;;;;4.03;3.70;;;5.00;99.90;;;;;;5070448;28;20567;-51
2022/10/04 05:48:57;;;;;;;3.83;3.42;;;5.10;99.90;;;;;;5074725;28;20025;-52
2022/10/04 05:51:26;;;;;;;8.70;3.88;;;5.20;99.90;;;;;;5074982;28;20032;-51
2022/10/04 05:54:00;;;;;;;5.65;4.00;;;5.30;99.90;;;;;;5074541;28;20078;-52
2022/10/04 05:56:29;;;;;;;5.32;4.15;;;5.30;99.90;;;;;;5074684;28;20032;-53
2022/10/04 05:59:13;;;;;;;7.50;4.18;;;5.40;99.90;;;;;;5074750;28;20082;-53
2022/10/04 06:02:09;;;;;;;13.60;5.72;;;5.50;99.90;;;;;;5074780;28;20036;-53
2022/10/04 06:05:02;;;;;;;7.03;5.07;;;5.60;99.90;;;;;;5074739;28;20036;-51
2022/10/04 06:07:39;;;;;;;12.48;6.13;;;5.70;99.90;;;;;;5074600;28;20032;-52
2022/10/04 06:10:05;;;;;;;23.98;7.53;;;5.80;99.90;;;;;;5074296;28;20051;-53
2022/10/04 06:13:09;;;;;;;8.60;5.97;;;5.90;99.90;;;;;;5074429;28;20021;-53
2022/10/04 06:15:57;;;;;;;9.18;6.50;;;6.00;99.90;;;;;;5073098;28;20036;-54
2022/10/04 06:18:54;;;;;;;16.10;6.57;;;6.10;99.90;;;;;;5074555;28;20049;-52
2022/10/04 06:21:42;;;;;;;10.90;6.55;;;6.30;99.90;;;;;;5072665;28;20040;-51
2022/10/04 06:24:19;;;;;;;8.57;7.13;;;6.50;99.90;;;;;;5071114;28;20052;-54
2022/10/04 06:26:52;;;;;;;15.10;7.72;;;6.60;99.90;;;;;;5074201;28;20514;-51
2022/10/04 06:29:27;;;;;;;11.52;6.90;;;6.60;99.90;;;;;;5072977;28;20024;-52
2022/10/04 06:32:38;;;;;;;14.77;7.88;;;6.60;99.90;;;;;;5073770;28;20479;-53
2022/10/04 06:35:34;;;;;;;14.05;6.70;;;6.70;99.90;;;;;;5073839;28;20377;-53
2022/10/04 06:38:31;;;;;;;12.90;6.47;;;6.70;99.90;;;;;;5073983;28;20024;-56
2022/10/04 06:41:22;;;;;;;14.68;7.20;;;6.80;99.90;;;;;;5072021;28;20090;-54
2022/10/04 06:44:16;;;;;;;9.65;6.22;;;6.90;99.90;;;;;;5072402;28;20020;-52
2022/10/04 06:46:51;;;;;;;8.75;5.40;;;7.10;99.90;;;;;;5073038;28;20297;-51
2022/10/04 06:49:41;;;;;;;8.88;4.95;;;7.40;99.90;;;;;;5072532;28;20028;-50
2022/10/04 06:52:46;;;;;;;6.35;4.35;;;7.50;99.90;;;;;;5072296;28;20028;-52
2022/10/04 06:55:38;;;;;;;9.52;4.80;;;7.70;99.90;;;;;;5071287;28;20079;-50
2022/10/04 06:58:23;;;;;;;6.15;4.82;;;7.70;99.90;;;;;;5070966;28;20515;-53
2022/10/04 07:01:21;;;;;;;8.48;4.55;;;7.80;99.90;;;;;;5070829;28;20490;-52
2022/10/04 07:04:15;;;;;;;8.63;4.75;;;8.00;99.90;;;;;;5072000;28;20028;-53
2022/10/04 07:06:53;;;;;;;7.78;4.43;;;8.20;99.90;;;;;;5072230;28;20021;-53
2022/10/04 07:09:24;;;;;;;7.80;4.80;;;8.00;99.90;;;;;;5072142;28;20072;-51
2022/10/04 07:11:57;;;;;;;13.52;4.88;;;8.20;99.90;;;;;;5071998;28;20028;-52
2022/10/04 07:14:31;;;;;;;8.20;5.30;;;8.30;99.90;;;;;;5072352;28;20078;-51
2022/10/04 07:17:18;;;;;;;6.85;4.60;;;8.40;99.90;;;;;;5071926;28;20016;-51
2022/10/04 07:19:49;;;;;;;8.52;5.72;;;8.60;99.90;;;;;;5071976;28;20013;-51
2022/10/04 07:22:25;;;;;;;10.50;6.07;;;8.70;99.90;;;;;;5071773;28;20029;-51
2022/10/04 07:24:56;;;;;;;7.43;5.68;;;8.80;99.90;;;;;;5071722;28;20031;-53
2022/10/04 07:31:02;;;;;;;9.20;6.25;;;8.70;99.90;;;;;;5071801;28;20047;-53
2022/10/04 07:33:40;;;;;;;8.60;5.95;;;8.90;99.90;;;;;;5071806;28;20392;-51
2022/10/04 07:36:12;;;;;;;9.02;6.50;;;8.90;99.90;;;;;;5071516;28;20466;-52
2022/10/04 07:38:52;;;;;;;10.13;6.07;;;8.80;99.90;;;;;;5071575;28;20021;-52
2022/10/04 07:41:34;;;;;;;11.75;5.82;;;8.80;99.90;;;;;;5071750;28;20036;-52
2022/10/04 07:44:22;;;;;;;12.20;6.03;;;8.80;99.90;;;;;;5071202;28;20028;-51
2022/10/04 07:47:00;;;;;;;11.57;6.43;;;8.90;99.90;;;;;;5071415;28;20353;-53
2022/10/04 07:49:26;;;;;;;10.57;5.50;;;9.00;99.90;;;;;;5071196;28;20020;-52
2022/10/04 07:52:14;;;;;;;17.58;6.60;;;9.10;99.90;;;;;;5071244;28;20097;-54
2022/10/04 07:54:59;;;;;;;8.75;6.07;;;9.20;99.90;;;;;;5071403;28;20078;-54
2022/10/04 07:57:47;;;;;;;8.93;7.32;;;9.30;99.90;;;;;;5071174;28;20029;-52
2022/10/04 08:00:48;;;;;;;6.97;6.00;;;9.70;99.90;;;;;;5056729;28;20156;-53
2022/10/04 08:03:31;;;;;;;9.43;6.50;;;10.10;99.90;;;;;;5060028;28;20040;-54
2022/10/04 08:06:11;;;;;;;8.35;5.57;;;10.50;99.90;;;;;;5051022;28;20108;-54
2022/10/04 08:08:48;;;;;;;8.90;5.80;;;10.90;99.90;;;;;;5050843;28;20037;-55
2022/10/04 08:11:40;;;;;;;7.95;6.03;;;11.50;99.90;;;;;;5032632;28;20037;-55
2022/10/04 08:14:20;;;;;;;13.60;6.00;;;12.20;99.90;;;;;;5056519;28;20044;-51
2022/10/04 08:16:53;;;;;;;12.07;4.90;;;12.40;99.90;;;;;;5032380;28;20431;-55
2022/10/04 08:19:39;;;;;;;11.07;6.07;;;12.60;99.90;;;;;;5052087;28;20025;-55
2022/10/04 08:22:12;;;;;;;11.07;6.68;;;12.70;99.90;;;;;;5050548;28;20528;-51
2022/10/04 08:24:50;;;;;;;12.18;6.38;;;12.50;99.90;;;;;;5051469;28;20548;-56
2022/10/04 08:27:38;;;;;;;11.80;5.50;;;12.70;99.90;;;;;;5051651;28;20029;-55
2022/10/04 08:30:14;;;;;;;8.98;6.13;;;12.90;99.90;;;;;;5051535;28;20455;-53
2022/10/04 08:33:11;;;;;;;11.23;6.82;;;13.10;99.90;;;;;;5051961;28;20032;-54
2022/10/04 08:35:38;;;;;;;15.07;5.50;;;13.20;99.90;;;;;;5051850;28;20033;-55
2022/10/04 08:38:30;;;;;;;11.57;5.45;;;13.30;99.90;;;;;;5051103;28;20028;-51
2022/10/04 08:41:19;;;;;;;8.70;3.85;;;13.40;99.90;;;;;;5050431;28;20040;-56
2022/10/04 08:44:07;;;;;;;8.88;4.38;;;13.40;99.90;;;;;;5050985;28;20033;-54
2022/10/04 08:47:20;;;;;;;8.68;4.80;;;13.50;99.90;;;;;;5051226;28;20020;-51
2022/10/04 08:50:16;;;;;;;9.55;4.40;;;13.60;99.90;;;;;;5056564;28;20029;-55
2022/10/04 08:53:06;;;;;;;9.68;4.38;;;13.80;99.90;;;;;;5050493;28;20025;-52
2022/10/04 08:56:03;;;;;;;9.00;3.67;;;14.00;99.90;;;;;;5061181;28;20017;-52
2022/10/04 08:59:05;;;;;;;14.05;4.07;;;14.20;99.90;;;;;;5071376;28;20112;-67
2022/10/04 09:01:58;;;;;;;8.95;3.47;;;14.50;99.90;;;;;;5071369;28;20028;-52
2022/10/04 09:04:46;;;;;;;6.70;4.10;;;14.20;99.90;;;;;;5071520;28;20086;-56
2022/10/04 09:07:40;;;;;;;9.05;4.47;;;14.70;99.90;;;;;;5071054;28;20110;-53
2022/10/04 09:10:39;;;;;;;6.38;4.15;;;14.80;99.90;;;;;;5071020;28;20059;-52
2022/10/04 09:13:36;;;;;;;9.75;4.57;;;15.00;99.90;;;;;;5070762;28;20028;-51
2022/10/04 09:16:38;;;;;;;11.13;4.50;;;14.90;99.90;;;;;;5070912;28;20024;-55
2022/10/04 09:19:19;;;;;;;9.35;3.63;;;15.10;99.90;;;;;;5070862;28;20074;-54
2022/10/04 09:21:45;;;;;;;6.88;3.08;;;15.20;99.90;;;;;;5073450;28;20040;-53
2022/10/04 09:24:50;;;;;;;6.38;3.30;;;15.40;99.90;;;;;;5075293;28;20452;-55
2022/10/04 09:27:46;;;;;;;6.80;3.33;;;14.80;99.90;;;;;;5073939;28;20119;-55
2022/10/04 09:30:20;;;;;;;11.00;3.08;;;15.00;99.90;;;;;;5074811;28;20024;-54
2022/10/04 09:33:01;;;;;;;8.25;3.95;;;15.40;99.90;;;;;;5074902;28;20025;-55
2022/10/04 09:35:32;;;;;;;7.50;3.17;;;15.70;99.90;;;;;;5075194;28;20062;-54
2022/10/04 09:38:22;;;;;;;5.60;2.20;;;15.70;99.90;;;;;;5074517;28;20090;-55
2022/10/04 09:41:15;;;;;;;4.93;2.13;;;15.80;99.90;;;;;;5074918;28;20031;-53
2022/10/04 09:44:23;;;;;;;10.13;2.92;;;15.90;98.60;;;;;;5074617;28;20103;-56
2022/10/04 09:47:19;;;;;;;6.47;2.53;;;15.90;96.70;;;;;;5073446;28;20025;-55
2022/10/04 09:50:17;;;;;;;6.07;1.73;;;15.70;95.30;;;;;;5074575;28;20025;-56
2022/10/04 09:52:57;;;;;;;9.02;3.15;;;16.10;96.40;;;;;;5073043;28;20142;-56
2022/10/04 09:55:48;;;;;;;4.50;2.03;;;16.10;95.10;;;;;;5074794;28;20044;-53
2022/10/04 09:58:50;;;;;;;3.08;1.92;;;16.50;95.30;;;;;;5055821;28;20079;-55
2022/10/04 10:02:02;;;;;;;4.18;2.20;;;16.40;92.30;;;;;;5054603;28;20033;-55
2022/10/04 10:04:42;;;;;;;4.10;1.50;;;17.00;91.30;;;;;;5054505;28;20044;-52
2022/10/04 10:07:20;;;;;;;5.20;1.20;;;17.40;91.50;;;;;;5053262;28;20024;-55
2022/10/04 10:14:14;;;;;;;2.47;1.50;;;18.00;90.40;;;;;;5071562;28;20043;-54
2022/10/04 10:16:52;;;;;;;5.07;1.80;;;18.40;86.50;;;;;;5055845;28;20036;-53
2022/10/04 10:19:33;;;;;;;4.15;1.52;;;18.10;82.10;;;;;;5072949;28;20471;-50
2022/10/04 10:22:30;;;;;;;2.85;1.35;;;19.00;80.00;;;;;;5073962;28;20040;-54
2022/10/04 10:25:25;;;;;;;4.90;1.92;;;19.90;78.10;;;;;;5073557;28;20036;-54
2022/10/04 10:28:05;;;;;;;4.03;1.75;;;20.70;75.80;;;;;;5073805;28;20530;-52
2022/10/04 10:31:07;;;;;;;6.60;1.52;;;21.00;74.10;;;;;;5074179;28;20063;-55
2022/10/04 10:34:05;;;;;;;5.15;2.22;;;21.20;72.40;;;;;;5073391;28;20031;-53
2022/10/04 10:37:08;;;;;;;2.28;1.13;;;21.30;69.90;;;;;;5072531;28;20651;-55
2022/10/04 10:39:59;;;;;;;3.08;1.63;;;21.50;65.90;;;;;;5073849;28;20020;-55
2022/10/04 10:42:37;;;;;;;4.25;1.73;;;22.30;66.50;;;;;;5073663;28;20017;-55
2022/10/04 10:45:09;;;;;;;5.82;1.67;;;23.20;62.40;;;;;;5073586;28;20021;-54
2022/10/04 10:48:00;;;;;;;4.03;1.20;;;24.20;62.50;;;;;;5073386;28;20063;-51
2022/10/04 10:50:26;;;;;;;4.53;2.55;;;26.30;54.80;;;;;;5073642;28;20048;-52
2022/10/04 10:53:30;;;;;;;3.15;1.15;;;25.70;52.40;;;;;;5073160;28;20109;-55
2022/10/04 10:56:08;;;;;;;7.68;1.50;;;26.80;50.20;;;;;;5073579;28;20025;-55
2022/10/04 10:59:05;;;;;;;36.05;29.95;;;26.70;47.90;;;;;;5071729;28;20024;-57
2022/10/04 11:01:40;;;;;;;5.43;2.67;;;26.10;48.10;;;;;;5018562;28;20430;-56
2022/10/04 11:04:34;;;;;;;9.38;1.30;;;27.20;47.40;;;;;;5019612;28;20037;-56
2022/10/04 11:07:25;;;;;;;4.82;1.10;;;27.50;46.10;;;;;;5023606;28;20472;-56
2022/10/04 11:10:07;;;;;;;3.92;2.00;;;27.20;42.90;;;;;;5031810;28;20051;-57
2022/10/04 11:12:37;;;;;;;4.78;2.00;;;25.50;45.40;;;;;;5032199;28;20052;-55
2022/10/04 11:15:37;;;;;;;3.22;1.08;;;25.50;46.90;;;;;;5037584;28;20028;-52
2022/10/04 11:18:35;;;;;;;4.28;1.02;;;27.70;44.60;;;;;;5028644;28;20770;-52
2022/10/04 11:21:29;;;;;;;2.40;1.00;;;29.80;41.90;;;;;;5038183;28;20623;-55
2022/10/04 11:24:24;;;;;;;5.18;0.80;;;28.00;43.50;;;;;;5040231;28;20042;-52
2022/10/04 11:27:01;;;;;;;4.10;2.22;;;27.90;41.00;;;;;;5034311;28;20098;-55
2022/10/04 11:29:38;;;;;;;4.03;1.60;;;27.50;43.20;;;;;;5026041;28;20139;-55
2022/10/04 11:32:26;;;;;;;2.97;1.08;;;27.20;42.60;;;;;;5027202;28;20028;-55
2022/10/04 11:34:58;;;;;;;2.80;1.00;;;26.70;43.20;;;;;;5035411;28;20118;-57
2022/10/04 11:37:32;;;;;;;8.38;2.35;;;27.40;43.10;;;;;;5042850;28;20028;-54
2022/10/04 11:40:22;;;;;;;6.18;2.22;;;28.00;43.40;;;;;;5042012;28;20112;-54
2022/10/04 11:43:14;;;;;;;6.32;4.40;;;27.90;42.70;;;;;;5042019;28;20139;-56
2022/10/04 11:45:54;;;;;;;5.40;1.05;;;27.30;41.50;;;;;;5040735;28;20078;-55
2022/10/04 11:48:55;;;;;;;7.78;3.85;;;26.90;41.50;;;;;;5042595;28;20461;-55
2022/10/04 11:51:20;;;;;;;89.93;69.20;;;26.50;42.40;;;;;;5050566;28;20072;-56
2022/10/04 11:54:20;;;;;;;5.82;1.75;;;26.80;42.10;;;;;;5041317;28;20441;-56
2022/10/04 11:57:06;;;;;;;7.07;3.58;;;26.70;42.20;;;;;;5041270;28;20033;-56
2022/10/04 11:59:55;;;;;;;7.75;5.50;;;27.40;42.00;;;;;;5041806;28;20032;-55
2022/10/04 12:02:42;;;;;;;8.32;1.15;;;27.60;42.20;;;;;;5041436;28;20033;-53
2022/10/04 12:05:49;;;;;;;7.10;1.95;;;27.10;39.90;;;;;;5041211;28;20234;-54
2022/10/04 12:08:47;;;;;;;4.07;1.00;;;27.30;41.00;;;;;;5041549;28;20017;-54
2022/10/04 12:11:21;;;;;;;17.48;11.20;;;27.60;42.40;;;;;;5041808;28;20036;-57
2022/10/04 12:14:06;;;;;;;5.47;3.08;;;27.10;42.10;;;;;;5041010;28;20041;-53
2022/10/04 12:16:42;;;;;;;13.43;8.90;;;27.30;42.40;;;;;;5041374;28;20028;-56
2022/10/04 12:19:25;;;;;;;3.20;2.03;;;27.60;43.40;;;;;;5041096;28;20127;-57
2022/10/04 12:22:14;;;;;;;;;;;28.70;41.90;;;;;;5041316;28;20397;-57
2022/10/04 12:25:27;;;;;;;4.88;1.52;;;28.50;40.20;;;;;;5040084;28;20298;-55
2022/10/04 12:28:19;;;;;;;6.05;3.97;;;28.10;39.80;;;;;;5057277;28;20028;-56
2022/10/04 12:30:54;;;;;;;1.92;0.73;;;27.50;40.90;;;;;;5055661;28;20064;-56
2022/10/04 12:33:23;;;;;;;7.20;1.20;;;27.80;39.70;;;;;;5046136;28;20500;-56
2022/10/04 12:36:09;;;;;;;4.22;1.58;;;27.10;39.10;;;;;;5040788;28;20079;-56
2022/10/04 12:39:23;;;;;;;9.00;1.33;;;28.00;40.40;;;;;;5040649;28;20029;-56
2022/10/04 12:42:03;;;;;;;2.53;1.58;;;27.90;40.50;;;;;;5057418;28;20060;-56
2022/10/04 12:45:14;;;;;;;3.95;1.50;;;27.90;40.10;;;;;;5058426;28;20045;-56
2022/10/04 12:47:55;;;;;;;2.25;0.93;;;27.20;40.50;;;;;;5033370;28;20041;-56
2022/10/04 12:50:40;;;;;;;3.00;2.10;;;27.70;39.60;;;;;;5040954;28;20024;-54
2022/10/04 12:53:30;;;;;;;9.10;1.67;;;28.00;40.20;;;;;;5040435;28;20060;-54
2022/10/04 12:56:20;;;;;;;3.22;1.05;;;27.50;39.00;;;;;;5040155;28;22398;-57
2022/10/04 12:59:10;;;;;;;2.55;1.05;;;28.00;40.50;;;;;;5040289;28;20029;-57
2022/10/04 13:01:59;;;;;;;21.42;13.52;;;28.50;38.90;;;;;;5040243;28;20498;-57
2022/10/04 13:04:45;;;;;;;4.82;1.30;;;28.50;39.70;;;;;;5040746;28;20040;-56
2022/10/04 13:07:50;;;;;;;1.65;1.10;;;28.20;40.10;;;;;;5040330;28;20116;-57
2022/10/04 13:10:36;;;;;;;3.97;1.10;;;28.30;40.20;;;;;;5040155;28;20068;-54
2022/10/04 13:13:17;;;;;;;2.95;0.95;;;28.50;39.00;;;;;;5040442;28;20456;-56
2022/10/04 13:15:50;;;;;;;5.93;1.25;;;29.30;39.10;;;;;;5040823;28;20079;-56
2022/10/04 13:18:29;;;;;;;6.53;1.02;;;28.70;39.10;;;;;;5039180;28;20437;-57
2022/10/04 13:21:15;;;;;;;3.60;1.00;;;28.20;39.70;;;;;;5040547;28;20068;-57
2022/10/04 13:24:06;;;;;;;10.52;0.80;;;28.40;38.80;;;;;;5040578;28;20025;-55
2022/10/04 13:26:53;;;;;;;3.03;1.42;;;28.00;39.40;;;;;;5040389;28;20025;-56
2022/10/04 13:29:23;;;;;;;4.90;1.30;;;29.10;40.80;;;;;;5044842;28;20024;-54
2022/10/04 13:32:14;;;;;;;3.03;1.17;;;28.60;40.20;;;;;;5057292;28;20039;-57
2022/10/04 13:34:58;;;;;;;3.67;0.80;;;28.70;38.60;;;;;;5049902;28;20037;-54
2022/10/04 13:37:48;;;;;;;3.03;1.20;;;28.60;38.40;;;;;;5050848;28;20033;-57
2022/10/04 13:40:41;;;;;;;3.33;0.98;;;29.30;39.70;;;;;;5051036;28;20072;-57
2022/10/04 13:43:18;;;;;;;;;;;29.60;39.40;;;;;;5051016;28;20025;-56
2022/10/04 13:46:11;;;;;;;7.45;1.02;;;29.30;39.50;;;;;;5049409;28;19911;-58
2022/10/04 13:49:10;;;;;;;3.55;0.70;;;29.30;37.90;;;;;;5049577;28;20096;-58
2022/10/04 13:56:35;;;;;;;8.85;1.55;;;29.20;39.50;;;;;;5051227;28;20017;-57
2022/10/04 13:58:12;;;;;;;2.47;1.00;;;28.80;37.20;;;;;;5050761;28;20557;-57
2022/10/04 14:01:01;;;;;;;3.50;0.82;;;28.40;38.80;;;;;;5049899;28;20370;-55
2022/10/04 14:03:48;;;;;;;1.70;0.82;;;28.70;39.40;;;;;;5048298;28;20045;-56
2022/10/04 14:06:47;;;;;;;9.38;1.25;;;28.50;39.90;;;;;;5049466;28;20078;-57
2022/10/04 14:09:45;;;;;;;5.43;1.35;;;28.20;38.40;;;;;;5052069;28;20049;-57
2022/10/04 14:12:39;;;;;;;8.00;1.48;;;28.60;39.10;;;;;;5051961;28;20040;-57
2022/10/04 14:15:16;;;;;;;5.38;1.23;;;28.90;38.30;;;;;;5052712;28;20025;-56
2022/10/04 14:18:00;;;;;;;3.72;1.23;;;28.00;39.30;;;;;;5053254;28;20515;-54
2022/10/04 14:21:00;;;;;;;3.70;1.13;;;27.10;40.30;;;;;;5053100;28;20094;-55